Terminal Aerodrome Forecast
Issued by NWS Sterling, VA

Home | Current Version | Previous Version | Text Only | Print | Product List | Glossary On
Versions: 1 2 3 4 5 6 7 8 9 10 11 12 13 14 15 16 17 18 19 20 21 22 23 24 25 26
000
FTUS41 KLWX 032045 AAC
TAFBWI
TAF AMD
KBWI 032045Z 0321/0424 13005KT P6SM -FZRA OVC040
     FM032300 16008KT P6SM OVC040
     FM040300 22007KT 3SM BR OVC010
     FM041300 25005KT 1SM -RA OVC010=

USA.gov is the U.S. government's official web portal to all federal, state and local government web resources and services.